createdAt,value
2022-10-22T00:00:55.962Z,82.09
2022-10-22T00:03:22.571Z,82.31
2022-10-22T00:05:49.105Z,82.15
2022-10-22T00:08:15.517Z,81.42
2022-10-22T00:10:42.295Z,81.67
2022-10-22T00:13:11.182Z,79.95
2022-10-22T00:15:37.694Z,79.98
2022-10-22T00:18:04.366Z,79.42
2022-10-22T00:20:30.985Z,79.64
2022-10-22T00:22:57.478Z,79.01
2022-10-22T00:25:23.980Z,79.09
2022-10-22T00:27:50.513Z,79.93
2022-10-22T00:30:22.559Z,80.93
2022-10-22T00:32:49.038Z,80.24
2022-10-22T00:35:15.529Z,81.70
2022-10-22T00:37:41.956Z,80.46
2022-10-22T00:40:09.217Z,81.14
2022-10-22T00:42:35.645Z,81.44
2022-10-22T00:45:08.278Z,82.57
2022-10-22T00:47:41.577Z,82.40
2022-10-22T00:50:21.732Z,81.30
2022-10-22T00:52:49.318Z,83.64
2022-10-22T00:55:16.461Z,83.23
2022-10-22T00:57:43.459Z,83.80
2022-10-22T01:00:10.546Z,83.32
2022-10-22T01:02:37.107Z,83.92
2022-10-22T01:05:04.725Z,83.23
2022-10-22T01:07:31.398Z,81.23
2022-10-22T01:10:06.991Z,82.52
2022-10-22T01:12:45.554Z,82.43
2022-10-22T01:15:42.604Z,82.10
2022-10-22T01:18:29.503Z,82.02
2022-10-22T01:21:22.300Z,83.36
2022-10-22T01:23:54.435Z,82.84
2022-10-22T01:26:54.951Z,83.57
2022-10-22T01:29:38.571Z,83.37
2022-10-22T01:32:11.065Z,82.98
2022-10-22T01:34:40.921Z,83.36
2022-10-22T01:37:09.857Z,83.38
2022-10-22T01:39:37.963Z,82.62
2022-10-22T01:42:04.434Z,82.17
2022-10-22T01:44:33.854Z,80.94
2022-10-22T01:47:22.250Z,82.50
2022-10-22T01:50:28.444Z,83.74
2022-10-22T01:53:12.830Z,83.16
2022-10-22T01:56:16.969Z,82.06
2022-10-22T01:59:04.514Z,83.20
2022-10-22T02:02:12.115Z,82.80
2022-10-22T02:04:48.469Z,84.18
2022-10-22T02:07:19.524Z,84.11
2022-10-22T02:09:46.867Z,83.77
2022-10-22T02:12:14.892Z,83.17
2022-10-22T02:14:43.986Z,83.35
2022-10-22T02:17:15.998Z,84.30
2022-10-22T02:19:46.460Z,84.14
2022-10-22T02:22:13.457Z,85.15
2022-10-22T02:24:40.047Z,84.45
2022-10-22T02:27:16.734Z,84.04
2022-10-22T02:30:07.247Z,84.29
2022-10-22T02:32:43.690Z,85.46
2022-10-22T02:35:14.989Z,85.57
2022-10-22T02:37:42.496Z,85.86
2022-10-22T02:40:09.505Z,85.71
2022-10-22T02:42:37.916Z,85.61
2022-10-22T02:45:05.554Z,85.57
2022-10-22T02:47:32.348Z,85.58
2022-10-22T02:49:58.791Z,83.29
2022-10-22T02:52:25.232Z,82.32
2022-10-22T02:54:51.671Z,82.34
2022-10-22T02:57:18.148Z,81.68
2022-10-22T02:59:44.600Z,83.44
2022-10-22T03:02:11.022Z,84.10
2022-10-22T03:04:37.504Z,84.35
2022-10-22T03:07:03.952Z,84.50
2022-10-22T03:09:30.439Z,84.64
2022-10-22T03:11:56.931Z,83.73
2022-10-22T03:14:23.374Z,84.00
2022-10-22T03:16:49.885Z,84.72
2022-10-22T03:19:16.449Z,84.76
2022-10-22T03:21:50.459Z,83.22
2022-10-22T03:24:22.829Z,83.91
2022-10-22T03:26:51.826Z,83.81
2022-10-22T03:29:21.502Z,83.57
2022-10-22T03:31:47.943Z,84.10
2022-10-22T03:34:14.734Z,84.88
2022-10-22T03:36:41.946Z,84.88
2022-10-22T03:39:09.396Z,84.52
2022-10-22T03:41:36.534Z,84.50
2022-10-22T03:44:04.447Z,84.98
2022-10-22T03:46:30.966Z,84.36
2022-10-22T03:48:57.391Z,84.40
2022-10-22T03:51:27.019Z,83.52
2022-10-22T03:53:53.807Z,83.79
2022-10-22T03:56:20.659Z,84.71
2022-10-22T03:58:47.098Z,84.46
2022-10-22T04:01:14.293Z,83.17
2022-10-22T04:03:40.886Z,83.64
2022-10-22T04:06:11.055Z,84.12
2022-10-22T04:08:39.952Z,84.42
2022-10-22T04:11:06.685Z,84.11
2022-10-22T04:13:33.119Z,85.16
2022-10-22T04:16:32.728Z,83.06
2022-10-22T04:18:59.443Z,82.34
2022-10-22T04:21:26.068Z,81.25
2022-10-22T04:23:53.307Z,81.64
2022-10-22T04:26:20.587Z,81.59
2022-10-22T04:28:50.397Z,82.73
2022-10-22T04:31:20.103Z,83.64
2022-10-22T04:33:47.027Z,82.00
2022-10-22T04:36:18.652Z,80.86
2022-10-22T04:38:46.867Z,80.71
2022-10-22T04:41:21.486Z,79.63
2022-10-22T04:43:48.418Z,78.58
2022-10-22T04:46:17.185Z,78.43
2022-10-22T04:48:46.008Z,78.40
2022-10-22T04:51:17.757Z,80.38
2022-10-22T04:53:45.036Z,79.31
2022-10-22T04:56:19.785Z,78.90
2022-10-22T04:58:48.538Z,77.33
2022-10-22T05:01:17.766Z,79.56
2022-10-22T05:03:45.168Z,80.28
2022-10-22T05:08:44.653Z,81.27
2022-10-22T05:11:16.865Z,81.37
2022-10-22T05:13:43.660Z,79.50
2022-10-22T05:16:12.071Z,80.46
2022-10-22T05:18:40.407Z,82.17
2022-10-22T05:21:12.603Z,81.36
2022-10-22T05:23:39.226Z,82.51
2022-10-22T05:26:07.933Z,81.95
2022-10-22T05:28:35.201Z,81.32
2022-10-22T05:31:03.624Z,81.77
2022-10-22T05:33:33.253Z,81.84
2022-10-22T05:36:00.863Z,81.50
2022-10-22T05:38:27.410Z,81.76
2022-10-22T05:41:04.506Z,81.60
2022-10-22T05:43:31.127Z,81.67
2022-10-22T05:46:05.272Z,83.01
2022-10-22T05:51:05.577Z,82.46
2022-10-22T05:53:36.987Z,83.18
2022-10-22T05:56:04.726Z,83.93
2022-10-22T05:58:31.562Z,82.95
2022-10-22T06:01:06.940Z,83.22
2022-10-22T06:03:33.847Z,83.98
2022-10-22T06:06:02.854Z,84.13
2022-10-22T06:08:30.470Z,84.17
2022-10-22T06:10:57.689Z,84.47
2022-10-22T06:13:24.147Z,83.57
2022-10-22T06:15:53.435Z,84.63
2022-10-22T06:18:20.209Z,83.97
2022-10-22T06:20:47.611Z,82.69
2022-10-22T06:23:14.860Z,82.99
2022-10-22T06:25:41.823Z,83.36
2022-10-22T06:28:08.251Z,83.73
2022-10-22T06:30:34.840Z,84.15
2022-10-22T06:33:01.270Z,84.67
2022-10-22T06:35:27.701Z,85.57
2022-10-22T06:37:54.139Z,85.17
2022-10-22T06:40:21.402Z,84.68
2022-10-22T06:42:47.874Z,84.57
2022-10-22T06:45:14.591Z,85.10
2022-10-22T06:47:41.166Z,85.54
2022-10-22T06:50:08.088Z,84.18
2022-10-22T06:52:34.520Z,85.02
2022-10-22T06:55:01.003Z,85.39
2022-10-22T06:57:27.476Z,85.01
2022-10-22T06:59:53.917Z,84.99
2022-10-22T07:02:20.347Z,84.02
2022-10-22T07:04:46.897Z,84.30
2022-10-22T07:07:14.872Z,84.10
2022-10-22T07:09:41.395Z,85.61
2022-10-22T07:12:07.813Z,85.40
2022-10-22T07:14:34.244Z,85.59
2022-10-22T07:17:00.706Z,86.07
2022-10-22T07:19:27.175Z,86.27
2022-10-22T07:21:53.652Z,86.73
2022-10-22T07:24:20.129Z,86.06
2022-10-22T07:26:46.769Z,86.39
2022-10-22T07:29:15.381Z,84.44
2022-10-22T07:31:42.371Z,85.29
2022-10-22T07:34:09.316Z,83.97
2022-10-22T07:36:36.060Z,85.46
2022-10-22T07:39:02.816Z,84.58
2022-10-22T07:41:30.966Z,83.87
2022-10-22T07:43:58.116Z,85.20
2022-10-22T07:46:25.340Z,85.18
2022-10-22T07:48:51.777Z,84.59
2022-10-22T07:51:18.259Z,86.23
2022-10-22T07:53:44.717Z,86.31
2022-10-22T07:56:11.349Z,85.45
2022-10-22T07:58:38.035Z,83.78
2022-10-22T08:01:05.802Z,85.62
2022-10-22T08:03:33.118Z,85.78
2022-10-22T08:06:00.938Z,85.69
2022-10-22T08:08:30.588Z,86.47
2022-10-22T08:10:59.745Z,87.19
2022-10-22T08:13:27.404Z,87.75
2022-10-22T08:15:57.273Z,86.20
2022-10-22T08:18:24.475Z,88.05
2022-10-22T08:20:51.587Z,87.62
2022-10-22T08:23:18.060Z,86.77
2022-10-22T08:25:44.549Z,86.75
2022-10-22T08:28:11.011Z,87.04
2022-10-22T08:30:38.625Z,87.00
2022-10-22T08:33:06.035Z,87.07
2022-10-22T08:35:32.734Z,85.82
2022-10-22T08:37:59.182Z,85.81
2022-10-22T08:40:31.934Z,85.54
2022-10-22T08:43:11.964Z,86.55
2022-10-22T08:45:57.963Z,85.99
2022-10-22T08:48:38.701Z,86.69
2022-10-22T08:51:05.791Z,86.74
2022-10-22T08:53:39.889Z,85.82
2022-10-22T08:56:06.538Z,85.69
2022-10-22T08:58:53.188Z,85.65
2022-10-22T09:01:45.542Z,85.69
2022-10-22T09:04:16.276Z,85.25
2022-10-22T09:06:44.412Z,84.78
2022-10-22T09:09:18.551Z,85.70
2022-10-22T09:11:56.575Z,85.19
2022-10-22T09:14:25.299Z,84.85
2022-10-22T09:17:09.835Z,85.20
2022-10-22T09:19:48.938Z,84.95
2022-10-22T09:22:36.818Z,84.83
2022-10-22T09:25:27.787Z,84.79
2022-10-22T09:27:58.595Z,84.92
2022-10-22T09:30:28.522Z,84.04
2022-10-22T09:33:01.104Z,83.91
2022-10-22T09:35:28.656Z,83.51
2022-10-22T09:37:57.011Z,84.18
2022-10-22T09:40:24.006Z,83.75
2022-10-22T09:42:50.523Z,83.31
2022-10-22T09:45:23.187Z,83.73
2022-10-22T09:48:01.541Z,82.73
2022-10-22T09:50:41.300Z,81.64
2022-10-22T09:53:27.009Z,81.74
2022-10-22T09:55:58.992Z,80.89
2022-10-22T09:58:26.387Z,80.81
2022-10-22T10:00:56.890Z,80.74
2022-10-22T10:03:26.899Z,79.37
2022-10-22T10:06:00.183Z,78.43
2022-10-22T10:08:29.811Z,78.66
2022-10-22T10:11:09.357Z,78.26
2022-10-22T10:13:53.925Z,78.64
2022-10-22T10:16:23.293Z,77.26
2022-10-22T10:19:14.052Z,77.32
2022-10-22T10:22:09.765Z,76.53
2022-10-22T10:25:03.488Z,76.54
2022-10-22T10:27:43.014Z,77.24
2022-10-22T10:30:19.554Z,77.58
2022-10-22T10:33:01.215Z,77.30
2022-10-22T10:35:58.598Z,75.50
2022-10-22T10:38:43.908Z,76.79
2022-10-22T10:41:17.595Z,76.71
2022-10-22T10:43:49.915Z,77.04
2022-10-22T10:46:36.920Z,77.36
2022-10-22T10:49:18.826Z,77.23
2022-10-22T10:51:50.172Z,77.10
2022-10-22T10:54:22.524Z,78.62
2022-10-22T10:56:56.803Z,79.45
2022-10-22T10:59:54.738Z,77.80
2022-10-22T11:02:29.899Z,77.58
2022-10-22T11:05:13.013Z,78.17
2022-10-22T11:07:49.859Z,76.94
2022-10-22T11:10:25.945Z,77.90
2022-10-22T11:12:57.471Z,78.00
2022-10-22T11:15:29.872Z,76.96
2022-10-22T11:18:03.055Z,76.52
2022-10-22T11:20:50.282Z,77.19
2022-10-22T11:23:29.054Z,75.20
2022-10-22T11:25:55.576Z,69.49
2022-10-22T11:28:33.903Z,71.81
2022-10-22T11:31:05.002Z,74.14
2022-10-22T11:33:52.694Z,74.66
2022-10-22T11:36:27.286Z,75.63
2022-10-22T11:38:54.401Z,76.39
2022-10-22T11:41:27.423Z,77.00
2022-10-22T11:44:23.292Z,77.18
2022-10-22T11:46:57.252Z,76.28
2022-10-22T11:49:42.348Z,74.73
2022-10-22T11:52:24.135Z,75.11
2022-10-22T11:54:54.880Z,75.22
2022-10-22T11:57:27.199Z,76.19
2022-10-22T11:59:58.995Z,76.71
2022-10-22T12:02:28.484Z,76.93
2022-10-22T12:04:56.596Z,75.97
2022-10-22T12:08:00.003Z,75.55
2022-10-22T12:10:34.221Z,75.87
2022-10-22T12:13:24.620Z,73.08
2022-10-22T12:15:57.945Z,74.14
2022-10-22T12:18:33.022Z,74.10
2022-10-22T12:20:59.503Z,70.84
2022-10-22T12:23:31.469Z,72.61
2022-10-22T12:25:58.384Z,70.90
2022-10-22T12:28:24.833Z,73.18
2022-10-22T12:30:51.285Z,70.54
2022-10-22T12:33:21.583Z,71.28
2022-10-22T12:35:51.474Z,72.94
2022-10-22T12:38:21.366Z,71.63
2022-10-22T12:40:50.216Z,71.38
2022-10-22T12:43:19.975Z,71.30
2022-10-22T12:45:48.486Z,71.92
2022-10-22T12:48:25.300Z,69.64
2022-10-22T12:50:54.530Z,70.67
2022-10-22T12:53:27.791Z,71.15
2022-10-22T12:55:57.580Z,70.41
2022-10-22T12:58:29.845Z,70.51
2022-10-22T13:01:01.927Z,71.94
2022-10-22T13:03:39.891Z,70.89
2022-10-22T13:06:18.970Z,68.88
2022-10-22T13:08:56.463Z,70.27
2022-10-22T13:11:22.960Z,70.11
2022-10-22T13:13:49.401Z,69.48
2022-10-22T13:16:24.627Z,72.02
2022-10-22T13:18:52.898Z,71.10
2022-10-22T13:21:26.595Z,71.29
2022-10-22T13:23:58.431Z,72.78
2022-10-22T13:26:31.630Z,70.45
2022-10-22T13:29:01.073Z,72.18
2022-10-22T13:31:32.140Z,70.28
2022-10-22T13:34:09.719Z,72.33
2022-10-22T13:36:38.368Z,69.36
2022-10-22T13:39:07.912Z,70.37
2022-10-22T13:44:11.988Z,71.17
2022-10-22T13:46:42.529Z,71.05
2022-10-22T13:49:20.881Z,73.26
2022-10-22T13:51:47.763Z,71.96
2022-10-22T13:54:18.631Z,71.94
2022-10-22T13:56:45.748Z,72.99
2022-10-22T13:59:12.702Z,71.16
2022-10-22T14:01:39.365Z,70.39
2022-10-22T14:04:10.368Z,71.53
2022-10-22T14:09:15.020Z,70.96
2022-10-22T14:11:41.654Z,69.15
2022-10-22T14:14:09.145Z,70.24
2022-10-22T14:16:37.339Z,71.54
2022-10-22T14:19:07.217Z,71.35
2022-10-22T14:21:36.795Z,72.91
2022-10-22T14:24:03.380Z,70.90
2022-10-22T14:26:35.006Z,71.04
2022-10-22T14:29:10.723Z,71.75
2022-10-22T14:34:10.769Z,69.35
2022-10-22T14:36:37.278Z,70.07
2022-10-22T14:39:03.817Z,69.78
2022-10-22T14:41:30.802Z,68.58
2022-10-22T14:43:59.408Z,69.18
2022-10-22T14:46:25.899Z,66.98
2022-10-22T14:48:52.381Z,69.15
2022-10-22T14:51:21.349Z,70.17
2022-10-22T14:53:48.009Z,70.38
2022-10-22T14:56:18.635Z,70.40
2022-10-22T14:58:45.668Z,68.20
2022-10-22T15:01:12.935Z,70.37
2022-10-22T15:03:39.580Z,69.03
2022-10-22T15:06:06.910Z,71.88
2022-10-22T15:08:33.611Z,70.74
2022-10-22T15:11:03.329Z,72.79
2022-10-22T15:13:30.691Z,74.72
2022-10-22T15:15:58.085Z,75.21
2022-10-22T15:18:25.464Z,75.19
2022-10-22T15:21:01.321Z,75.00
2022-10-22T15:23:27.873Z,76.27
2022-10-22T15:25:55.022Z,76.48
2022-10-22T15:28:21.563Z,76.88
2022-10-22T15:30:59.133Z,76.40
2022-10-22T15:33:26.983Z,76.03
2022-10-22T15:35:53.829Z,75.65
2022-10-22T15:38:20.514Z,75.96
2022-10-22T15:40:47.087Z,75.79
2022-10-22T15:43:14.084Z,76.03
2022-10-22T15:45:40.683Z,76.08
2022-10-22T15:48:07.178Z,76.24
2022-10-22T15:50:38.365Z,75.80
2022-10-22T15:53:05.471Z,75.30
2022-10-22T15:55:32.134Z,76.69
2022-10-22T15:58:01.842Z,76.03
2022-10-22T16:00:30.064Z,76.55
2022-10-22T16:02:56.666Z,76.58
2022-10-22T16:05:23.172Z,76.08
2022-10-22T16:07:51.357Z,76.48
2022-10-22T16:10:17.887Z,76.57
2022-10-22T16:12:44.527Z,76.59
2022-10-22T16:15:11.205Z,76.57
2022-10-22T16:17:37.723Z,76.44
2022-10-22T16:20:04.753Z,76.32
2022-10-22T16:22:31.318Z,76.35
2022-10-22T16:24:57.800Z,76.39
2022-10-22T16:27:24.242Z,75.87
2022-10-22T16:29:50.716Z,75.29
2022-10-22T16:32:17.808Z,75.12
2022-10-22T16:34:44.323Z,74.84
2022-10-22T16:37:10.802Z,74.37
2022-10-22T16:39:37.315Z,75.87
2022-10-22T16:42:04.043Z,75.55
2022-10-22T16:44:30.547Z,75.22
2022-10-22T16:46:57.018Z,75.65
2022-10-22T16:49:23.786Z,75.20
2022-10-22T16:51:50.331Z,74.48
2022-10-22T16:54:16.945Z,74.94
2022-10-22T16:56:43.441Z,74.56
2022-10-22T16:59:09.897Z,74.02
2022-10-22T17:01:40.556Z,73.84
2022-10-22T17:04:08.001Z,73.42
2022-10-22T17:06:34.467Z,73.37
2022-10-22T17:09:01.037Z,73.54
2022-10-22T17:11:29.943Z,73.24
2022-10-22T17:13:57.561Z,73.69
2022-10-22T17:16:24.770Z,73.70
2022-10-22T17:18:53.916Z,74.58
2022-10-22T17:21:21.264Z,73.60
2022-10-22T17:23:48.942Z,73.71
2022-10-22T17:26:21.540Z,74.08
2022-10-22T17:28:48.979Z,75.20
2022-10-22T17:31:27.140Z,74.93
2022-10-22T17:33:56.233Z,75.18
2022-10-22T17:36:24.374Z,74.92
2022-10-22T17:38:53.640Z,74.29
2022-10-22T17:41:31.885Z,73.51
2022-10-22T17:44:01.161Z,73.78
2022-10-22T17:46:29.355Z,74.75
2022-10-22T17:48:58.160Z,75.79
2022-10-22T17:51:26.195Z,76.74
2022-10-22T17:53:53.080Z,77.09
2022-10-22T17:56:22.288Z,75.73
2022-10-22T17:58:49.488Z,76.45
2022-10-22T18:01:24.868Z,75.82
2022-10-22T18:03:52.820Z,77.12
2022-10-22T18:06:19.501Z,76.30
2022-10-22T18:08:46.077Z,75.60
2022-10-22T18:11:23.806Z,74.56
2022-10-22T18:13:51.780Z,74.37
2022-10-22T18:16:18.879Z,74.70
2022-10-22T18:18:47.498Z,74.54
2022-10-22T18:21:15.594Z,74.58
2022-10-22T18:23:42.498Z,74.21
2022-10-22T18:26:09.109Z,74.73
2022-10-22T18:28:36.530Z,74.83
2022-10-22T18:31:10.553Z,75.39
2022-10-22T18:33:37.197Z,75.84
2022-10-22T18:36:05.776Z,75.94
2022-10-22T18:38:32.382Z,77.16
2022-10-22T18:40:59.316Z,77.29
2022-10-22T18:43:26.503Z,77.48
2022-10-22T18:45:52.952Z,77.65
2022-10-22T18:48:22.795Z,77.69
2022-10-22T18:50:59.121Z,78.16
2022-10-22T18:53:25.611Z,77.62
2022-10-22T18:55:52.220Z,77.71
2022-10-22T18:58:18.682Z,77.82
2022-10-22T19:00:45.258Z,77.17
2022-10-22T19:03:13.353Z,77.38
2022-10-22T19:05:52.040Z,77.95
2022-10-22T19:08:19.603Z,77.43
2022-10-22T19:10:47.214Z,77.87
2022-10-22T19:13:16.048Z,77.95
2022-10-22T19:15:42.781Z,78.30
2022-10-22T19:18:09.728Z,77.59
2022-10-22T19:20:37.168Z,77.86
2022-10-22T19:23:04.089Z,78.03
2022-10-22T19:25:30.513Z,78.30
2022-10-22T19:27:57.043Z,77.76
2022-10-22T19:30:24.099Z,77.52
2022-10-22T19:32:50.608Z,77.92
2022-10-22T19:35:17.476Z,77.74
2022-10-22T19:37:48.208Z,77.45
2022-10-22T19:40:15.261Z,77.60
2022-10-22T19:42:44.228Z,77.17
2022-10-22T19:45:11.166Z,77.15
2022-10-22T19:47:37.603Z,77.08
2022-10-22T19:50:04.339Z,76.77
2022-10-22T19:52:30.780Z,77.00
2022-10-22T19:54:57.210Z,76.48
2022-10-22T19:57:23.646Z,77.20
2022-10-22T19:59:50.824Z,76.90
2022-10-22T20:02:18.760Z,77.04
2022-10-22T20:04:49.207Z,77.12
2022-10-22T20:07:17.145Z,76.96
2022-10-22T20:09:43.614Z,77.31
2022-10-22T20:12:10.056Z,76.98
2022-10-22T20:14:37.400Z,77.28
2022-10-22T20:17:03.987Z,77.40
2022-10-22T20:19:30.416Z,77.62
2022-10-22T20:21:56.855Z,77.71
2022-10-22T20:24:23.342Z,77.10
2022-10-22T20:26:49.784Z,77.30
2022-10-22T20:29:18.981Z,77.32
2022-10-22T20:31:46.639Z,77.52
2022-10-22T20:34:13.336Z,77.79
2022-10-22T20:36:40.322Z,77.92
2022-10-22T20:39:13.095Z,78.07
2022-10-22T20:41:40.606Z,77.96
2022-10-22T20:44:11.176Z,77.24
2022-10-22T20:46:37.719Z,78.06
2022-10-22T20:49:07.569Z,78.36
2022-10-22T20:51:36.363Z,77.83
2022-10-22T20:54:03.431Z,77.97
2022-10-22T20:56:29.934Z,77.86
2022-10-22T20:59:04.745Z,78.07
2022-10-22T21:01:37.040Z,78.33
2022-10-22T21:04:04.450Z,78.51
2022-10-22T21:06:31.041Z,78.61
2022-10-22T21:08:57.546Z,78.86
2022-10-22T21:11:24.149Z,78.76
2022-10-22T21:13:51.011Z,78.12
2022-10-22T21:16:19.035Z,78.71
2022-10-22T21:18:46.943Z,78.68
2022-10-22T21:21:13.617Z,78.83
2022-10-22T21:23:40.163Z,79.18
2022-10-22T21:26:06.827Z,78.65
2022-10-22T21:28:35.713Z,78.00
2022-10-22T21:31:07.424Z,78.10
2022-10-22T21:33:38.728Z,78.40
2022-10-22T21:36:05.527Z,78.61
2022-10-22T21:38:32.649Z,78.39
2022-10-22T21:40:59.091Z,78.33
2022-10-22T21:43:25.520Z,78.89
2022-10-22T21:45:52.039Z,78.02
2022-10-22T21:48:18.455Z,78.84
2022-10-22T21:50:44.966Z,79.00
2022-10-22T21:53:12.234Z,79.17
2022-10-22T21:55:41.760Z,78.77
2022-10-22T21:58:08.618Z,78.64
2022-10-22T22:00:35.501Z,79.06
2022-10-22T22:03:02.357Z,79.13
2022-10-22T22:05:29.207Z,78.92
2022-10-22T22:07:55.681Z,79.53
2022-10-22T22:10:22.155Z,79.24
2022-10-22T22:12:51.136Z,79.17
2022-10-22T22:15:21.490Z,79.46
2022-10-22T22:17:47.962Z,79.27
2022-10-22T22:20:14.563Z,78.62
2022-10-22T22:22:41.285Z,78.59
2022-10-22T22:25:08.369Z,79.30
2022-10-22T22:27:34.834Z,79.42
2022-10-22T22:30:01.291Z,77.67
2022-10-22T22:32:27.707Z,77.11
2022-10-22T22:34:54.189Z,76.21
2022-10-22T22:37:20.621Z,75.54
2022-10-22T22:39:47.065Z,75.33
2022-10-22T22:42:13.476Z,75.44
2022-10-22T22:44:39.969Z,75.88
2022-10-22T22:47:06.392Z,75.98
2022-10-22T22:49:32.988Z,75.18
2022-10-22T22:51:59.491Z,74.88
2022-10-22T22:54:26.149Z,75.15
2022-10-22T22:56:52.579Z,75.49
2022-10-22T22:59:19.083Z,76.01
2022-10-22T23:01:48.596Z,75.86
2022-10-22T23:04:25.259Z,77.79
2022-10-22T23:06:52.178Z,78.33
2022-10-22T23:11:51.627Z,78.88
2022-10-22T23:14:19.556Z,78.12
2022-10-22T23:16:49.212Z,76.59
2022-10-22T23:19:17.809Z,76.11
2022-10-22T23:21:47.157Z,76.09
2022-10-22T23:24:16.947Z,76.45
2022-10-22T23:26:46.451Z,75.94
2022-10-22T23:29:24.692Z,76.84
2022-10-22T23:31:51.965Z,76.17
2022-10-22T23:34:21.852Z,76.31
2022-10-22T23:36:48.847Z,76.65
2022-10-22T23:39:18.382Z,77.48
2022-10-22T23:41:45.427Z,76.89
2022-10-22T23:44:12.862Z,77.00
2022-10-22T23:46:39.955Z,76.99
2022-10-22T23:49:08.345Z,77.01
2022-10-22T23:51:35.407Z,77.26
2022-10-22T23:54:04.974Z,77.21
2022-10-22T23:56:31.603Z,76.94
2022-10-22T23:58:58.836Z,77.31
